^^
Lockford-Weather Station Historical Data
 
Daily Summary for August 21, 2018 Units:  English    Metric   Both
Daily Weekly Monthly Yearly Custom
  Current: High: Low: Average:
Temperature: 75.9 °F 77.5 °F 53.8 °F 63.3 °F
Dew Point: 51.8 °F 52 °F 41.4 °F 46 °F
Humidity: 43% 70% 35% 54%
Wind Speed: 5.4mph 6mph 0mph 1mph
Wind Gust: 10.4mph 10.4mph - -
WindNW - - WSW
Pressure: 30.09 in 30.11 in 30.06 in -
Precipitation: 0 in      
Historical Graphs
 
 
Tabular Data for August 21, 2018
Time Temperature Dew Point Pressure Wind Wind Speed Wind Gust Humidity Rainfall Rate (Hourly)
00:03 70.3 °F 41.4 °F 30.07 in NE 1.6 mph 3.8 mph 35% 0 in
00:08 70.2 °F 41.9 °F 30.07 in NW 3.1 mph 6 mph 36% 0 in
00:14 70.2 °F 41.9 °F 30.07 in West 1.6 mph 3.5 mph 36% 0 in
00:19 69.6 °F 42.2 °F 30.07 in Calm   2.3 mph 37% 0 in
00:24 69.1 °F 41.7 °F 30.07 in Calm     37% 0 in
00:28 68.5 °F 43.2 °F 30.07 in NE 3.1 mph 4.5 mph 40% 0 in
00:34 68 °F 42.1 °F 30.07 in NE 1.6 mph 4.5 mph 39% 0 in
00:39 67.8 °F 42.6 °F 30.07 in NE 3.1 mph 3.8 mph 40% 0 in
00:44 67.8 °F 42.6 °F 30.07 in NE 3.1 mph 6.9 mph 40% 0 in
00:48 68 °F 42.1 °F 30.07 in Calm   2.2 mph 39% 0 in
00:53 67.8 °F 42.6 °F 30.08 in Calm   2.3 mph 40% 0 in
00:58 67.5 °F 42.3 °F 30.08 in NW 1.6 mph 2.3 mph 40% 0 in
01:03 67.5 °F 42.3 °F 30.07 in Calm   1.2 mph 40% 0 in
01:09 67.3 °F 42.8 °F 30.07 in Calm   1.2 mph 41% 0 in
01:13 66.9 °F 42.4 °F 30.08 in NW 0.7 mph 3.5 mph 41% 0 in
01:18 66.4 °F 43.2 °F 30.08 in SSE 1.6 mph 3.5 mph 43% 0 in
01:23 66 °F 43.5 °F 30.08 in Calm     44% 0 in
01:29 65.3 °F 44 °F 30.07 in SW 0.7 mph 3.8 mph 46% 0 in
01:33 65.1 °F 44.9 °F 30.07 in Calm   3.5 mph 48% 0 in
01:38 64.6 °F 44.4 °F 30.08 in Calm     48% 0 in
01:43 64.2 °F 45.2 °F 30.08 in Calm     50% 0 in
01:49 64.2 °F 45.2 °F 30.07 in Calm     50% 0 in
01:53 63.9 °F 45.9 °F 30.07 in Calm     52% 0 in
01:58 63.3 °F 45.4 °F 30.08 in Calm     52% 0 in
02:03 63.1 °F 44.7 °F 30.07 in Calm     51% 0 in
02:09 63.3 °F 44.4 °F 30.07 in NW 2.2 mph 5.8 mph 50% 0 in
02:14 63.7 °F 44.7 °F 30.07 in Calm     50% 0 in
02:18 63 °F 44 °F 30.08 in Calm     50% 0 in
02:23 63 °F 45.1 °F 30.07 in Calm   3.5 mph 52% 0 in
02:29 62.4 °F 45.1 °F 30.07 in Calm     53% 0 in
02:34 62.1 °F 44.7 °F 30.07 in Calm     53% 0 in
02:38 61.9 °F 44.1 °F 30.07 in Calm   1.2 mph 52% 0 in
02:43 61.5 °F 44.2 °F 30.08 in Calm     53% 0 in
02:49 61 °F 44.7 °F 30.08 in Calm     55% 0 in
02:54 60.6 °F 44.4 °F 30.07 in Calm     55% 0 in
02:58 60.6 °F 44.4 °F 30.07 in Calm   3.5 mph 55% 0 in
03:03 60.6 °F 44.8 °F 30.08 in Calm   1.6 mph 56% 0 in
03:09 60.8 °F 43.6 °F 30.08 in SW 0.7 mph 3.8 mph 53% 0 in
03:14 61.2 °F 43.4 °F 30.07 in Calm   1.2 mph 52% 0 in
03:19 61.2 °F 43.4 °F 30.07 in Calm   1.2 mph 52% 0 in
03:23 61 °F 43.7 °F 30.08 in Calm     53% 0 in
03:28 60.4 °F 43.7 °F 30.08 in Calm     54% 0 in
03:33 59.9 °F 43.7 °F 30.08 in Calm     55% 0 in
03:37 59.4 °F 43.7 °F 30.08 in Calm     56% 0 in
03:43 59.4 °F 42.7 °F 30.08 in Calm     54% 0 in
03:48 59.7 °F 43 °F 30.08 in Calm   3.5 mph 54% 0 in
03:53 59.7 °F 43 °F 30.08 in Calm   1.6 mph 54% 0 in
03:58 60.1 °F 43.4 °F 30.07 in Calm     54% 0 in
04:04 60.3 °F 43.5 °F 30.07 in Calm     54% 0 in
04:08 60.3 °F 43.5 °F 30.08 in Calm     54% 0 in
04:13 60.1 °F 44.3 °F 30.08 in Calm     56% 0 in
04:18 59.2 °F 43.9 °F 30.07 in Calm     57% 0 in
04:24 58.8 °F 44.5 °F 30.07 in Calm     59% 0 in
04:28 59 °F 44.7 °F 30.07 in Calm     59% 0 in
04:33 58.6 °F 44.3 °F 30.07 in Calm   1.2 mph 59% 0 in
04:38 58.3 °F 44.4 °F 30.07 in Calm     60% 0 in
04:44 57.4 °F 44 °F 30.06 in Calm     61% 0 in
04:48 56.8 °F 43.5 °F 30.06 in Calm     61% 0 in
04:53 56.7 °F 43.8 °F 30.07 in Calm     62% 0 in
04:58 56.7 °F 43.8 °F 30.07 in Calm     62% 0 in
05:04 56.5 °F 43.6 °F 30.07 in Calm     62% 0 in
05:09 56.7 °F 43.4 °F 30.07 in Calm     61% 0 in
05:13 56.8 °F 44 °F 30.07 in Calm     62% 0 in
05:18 56.8 °F 43.5 °F 30.07 in Calm     61% 0 in
05:24 56.7 °F 42.9 °F 30.07 in Calm     60% 0 in
05:29 56.1 °F 43.3 °F 30.06 in Calm     62% 0 in
05:33 55.9 °F 43.9 °F 30.07 in Calm     64% 0 in
05:38 55.4 °F 43.4 °F 30.07 in Calm     64% 0 in
05:44 55 °F 43.9 °F 30.08 in Calm     66% 0 in
05:49 54.9 °F 43.7 °F 30.08 in Calm     66% 0 in
05:54 54.9 °F 44.1 °F 30.06 in Calm     67% 0 in
05:58 55 °F 43.9 °F 30.07 in Calm     66% 0 in
06:04 55.4 °F 44.2 °F 30.08 in Calm     66% 0 in
06:09 54.9 °F 44.1 °F 30.07 in Calm     67% 0 in
06:14 55.9 °F 44.7 °F 30.08 in Calm     66% 0 in
06:18 55.9 °F 44.7 °F 30.08 in Calm   3.5 mph 66% 0 in
06:24 55.4 °F 44.2 °F 30.08 in Calm     66% 0 in
06:29 55 °F 44.3 °F 30.08 in Calm     67% 0 in
06:34 54.9 °F 43.7 °F 30.08 in Calm     66% 0 in
06:37 54.9 °F 44.9 °F 30.08 in Calm   3.8 mph 69% 0 in
06:43 54.3 °F 44.7 °F 30.09 in Calm   3.5 mph 70% 0 in
06:48 54.3 °F 44.4 °F 30.09 in Calm     69% 0 in
06:53 54.3 °F 44.7 °F 30.09 in Calm     70% 0 in
06:57 54 °F 44.4 °F 30.09 in Calm     70% 0 in
07:03 53.8 °F 44.2 °F 30.09 in Calm     70% 0 in
07:08 54 °F 44.4 °F 30.09 in Calm     70% 0 in
07:13 54.3 °F 44.7 °F 30.09 in Calm     70% 0 in
07:18 55.4 °F 45.8 °F 30.09 in Calm   1.6 mph 70% 0 in
07:23 56.3 °F 45.9 °F 30.09 in Calm     68% 0 in
07:28 56.7 °F 45 °F 30.09 in Calm   3.5 mph 65% 0 in
07:33 57.2 °F 45.5 °F 30.09 in Calm     65% 0 in
07:39 57.7 °F 46 °F 30.09 in Calm     65% 0 in
07:43 57.9 °F 46.2 °F 30.10 in Calm     65% 0 in
07:48 58.3 °F 46.2 °F 30.10 in Calm     64% 0 in
07:53 59 °F 46 °F 30.10 in Calm   3.5 mph 62% 0 in
07:59 59.5 °F 46.1 °F 30.10 in Calm   2.3 mph 61% 0 in
08:04 60.1 °F 46.6 °F 30.10 in Calm   1.2 mph 61% 0 in
08:08 60.4 °F 45.6 °F 30.11 in SW 0.7 mph 2.3 mph 58% 0 in
08:13 61 °F 46.5 °F 30.11 in Calm   2.3 mph 59% 0 in
08:19 61.2 °F 46.7 °F 30.11 in Calm     59% 0 in
08:24 61.5 °F 46.6 °F 30.10 in Calm   2.3 mph 58% 0 in
08:28 62.1 °F 47.1 °F 30.11 in West 0.7 mph 3.8 mph 58% 0 in
08:34 62.4 °F 47 °F 30.11 in Calm     57% 0 in
08:39 63.1 °F 47.2 °F 30.11 in Calm     56% 0 in
08:44 63.7 °F 48.2 °F 30.10 in Calm     57% 0 in
08:48 63.7 °F 47.2 °F 30.10 in West 1.6 mph 4.6 mph 55% 0 in
08:54 63.9 °F 47.4 °F 30.11 in West 1.6 mph 3.8 mph 55% 0 in
08:59 63.9 °F 47.9 °F 30.11 in NW 1.6 mph 3.8 mph 56% 0 in
09:04 64.2 °F 48.2 °F 30.11 in Calm   2.3 mph 56% 0 in
09:08 64.4 °F 48.4 °F 30.11 in West 0.7 mph 4.6 mph 56% 0 in
09:14 64.9 °F 48.4 °F 30.10 in West 1.6 mph 3.8 mph 55% 0 in
09:18 65.1 °F 48.5 °F 30.11 in West 2.2 mph 4.6 mph 55% 0 in
09:23 65.3 °F 49.2 °F 30.11 in Calm     56% 0 in
09:28 65.3 °F 48.7 °F 30.10 in West 1.6 mph 3.8 mph 55% 0 in
09:33 65.3 °F 48.7 °F 30.11 in NW 1.6 mph 3.8 mph 55% 0 in
09:38 65.3 °F 49.2 °F 30.11 in West 3.1 mph 6 mph 56% 0 in
09:43 64.9 °F 48.9 °F 30.11 in West 3.8 mph 6 mph 56% 0 in
09:48 64.9 °F 48.9 °F 30.11 in SW 4.5 mph 6.9 mph 56% 0 in
09:53 65.5 °F 49.4 °F 30.11 in NW 2.2 mph 5.8 mph 56% 0 in
09:58 66.4 °F 49.7 °F 30.11 in NW 2.2 mph 4.6 mph 55% 0 in
10:03 66.2 °F 49.1 °F 30.11 in NW 4.5 mph 9.2 mph 54% 0 in
10:08 66.4 °F 49.7 °F 30.11 in NW 2.2 mph 5.8 mph 55% 0 in
10:14 67.5 °F 50.2 °F 30.11 in NW 2.2 mph 4.6 mph 54% 0 in
10:18 68.2 °F 50.4 °F 30.11 in Calm   3.5 mph 53% 0 in
10:23 68.5 °F 49.7 °F 30.11 in West 3.8 mph 6.9 mph 51% 0 in
10:28 68.4 °F 50 °F 30.11 in North 1.6 mph 5.8 mph 52% 0 in
10:33 68.5 °F 50.2 °F 30.11 in West 0.7 mph 3.8 mph 52% 0 in
10:39 69.1 °F 49.7 °F 30.11 in NW 4.5 mph 6.9 mph 50% 0 in
10:43 68.9 °F 50 °F 30.10 in NW 3.8 mph 9.2 mph 51% 0 in
10:48 69.1 °F 50.7 °F 30.10 in SW 4.5 mph 8.3 mph 52% 0 in
10:53 69.1 °F 50.2 °F 30.11 in West 4.5 mph 8.3 mph 51% 0 in
10:59 69.3 °F 50.9 °F 30.11 in SW 6 mph 9.2 mph 52% 0 in
11:03 69.3 °F 50.4 °F 30.10 in NW 5.4 mph 9.2 mph 51% 0 in
11:08 69.4 °F 51 °F 30.10 in West 2.2 mph 8.1 mph 52% 0 in
11:13 69.8 °F 50.3 °F 30.11 in NW 1.6 mph 8.1 mph 50% 0 in
11:19 70.7 °F 50.6 °F 30.10 in NW 3.8 mph 9.2 mph 49% 0 in
11:24 70.2 °F 50.6 °F 30.11 in NW 4.5 mph 8.1 mph 50% 0 in
11:28 70.5 °F 50.4 °F 30.10 in NW 3.8 mph 9.2 mph 49% 0 in
11:33 70.9 °F 50.8 °F 30.10 in Calm   5.8 mph 49% 0 in
11:39 71.2 °F 50.5 °F 30.10 in NW 4.5 mph 6.9 mph 48% 0 in
11:44 72 °F 50.6 °F 30.11 in NW 2.2 mph 6 mph 47% 0 in
11:48 72.1 °F 50.8 °F 30.10 in West 1.6 mph 5.8 mph 47% 0 in
11:53 73.2 °F 50.6 °F 30.10 in NW 4.5 mph 6.9 mph 45% 0 in
11:59 73.4 °F 50.2 °F 30.10 in West 1.6 mph 3.8 mph 44% 0 in
12:04 74.3 °F 51 °F 30.09 in West 1.6 mph 6 mph 44% 0 in
12:09 75.6 °F 51.5 °F 30.10 in Calm     43% 0 in
12:14 76.8 °F 51.3 °F 30.10 in NW 2.2 mph 5.8 mph 41% 0 in
12:19 77.2 °F 51.7 °F 30.09 in SE 1.6 mph 3.1 mph 41% 0 in
12:24 77.5 °F 51.3 °F 30.09 in South 3.1 mph 6.9 mph 40% 0 in
12:29 77.5 °F 50.6 °F 30.09 in South 0.7 mph 3.8 mph 39% 0 in
12:32 76.8 °F 52 °F 30.09 in West 1.6 mph 8.1 mph 42% 0 in
12:38 75.7 °F 51 °F 30.09 in NW 3.1 mph 10.4 mph 42% 0 in
12:43 75.9 °F 51.8 °F 30.09 in NW 5.4 mph 10.4 mph 43% 0 in
Klamath Falls Weather
Compliments of Weather Underground - 2 mb